Time;durP1;ratioP1;P1;durP2;ratioP2;P2;SDS_P1;SDS_P2;PMS_P1;PMS_P2;Temp;Humidity;BMP_temperature;BMP_pressure;BME280_temperature;BME280_humidity;BME280_pressure;Samples;Min_cycle;Max_cycle;Signal;HPM_P1;HPM_P2
2024/03/28 00:02:07;;;;;;;187.70;98.72;;;410.20;2355.20;;;;;;5052164;28;20119;-71
2024/03/28 00:04:34;;;;;;;95.00;41.08;;;410.20;2355.20;;;;;;5052389;28;20427;-69
2024/03/28 00:06:59;;;;;;;95.57;36.15;;;410.20;2355.20;;;;;;5052094;28;20105;-72
2024/03/28 00:09:26;;;;;;;123.32;55.60;;;410.20;2355.20;;;;;;5040063;28;20361;-72
2024/03/28 00:11:52;;;;;;;167.10;83.68;;;410.20;2355.20;;;;;;5052243;28;20398;-71
2024/03/28 00:14:19;;;;;;;84.45;37.50;;;410.20;2355.20;;;;;;5041775;28;20039;-71
2024/03/28 00:16:45;;;;;;;172.43;93.53;;;410.20;2355.20;;;;;;5051981;28;20029;-72
2024/03/28 00:19:11;;;;;;;104.50;52.30;;;410.20;2355.20;;;;;;5051976;28;20029;-71
2024/03/28 00:21:37;;;;;;;63.30;28.27;;;410.20;2355.20;;;;;;5051894;28;20502;-72
2024/03/28 00:24:04;;;;;;;44.28;19.50;;;410.20;2355.20;;;;;;5051797;28;20100;-72
2024/03/28 00:26:30;;;;;;;45.08;17.20;;;410.20;2355.20;;;;;;5052066;28;20021;-71
2024/03/28 00:28:55;;;;;;;50.33;17.50;;;409.90;2355.20;;;;;;5051430;28;20078;-72
2024/03/28 00:31:21;;;;;;;46.35;18.08;;;409.60;2355.20;;;;;;5051942;28;20021;-71
2024/03/28 00:33:47;;;;;;;29.60;10.63;;;384.80;2329.60;;;;;;5051406;28;20024;-73
2024/03/28 00:36:13;;;;;;;33.28;13.20;;;384.80;2329.60;;;;;;5052112;28;20036;-71
2024/03/28 00:38:39;;;;;;;40.60;15.15;;;384.70;2329.60;;;;;;5051278;28;20473;-72
2024/03/28 00:41:05;;;;;;;60.88;25.85;;;384.60;2329.60;;;;;;5051528;28;20033;-73
2024/03/28 00:43:31;;;;;;;29.80;9.75;;;384.60;2329.60;;;;;;5051197;28;20061;-72
2024/03/28 00:45:59;;;;;;;36.78;13.18;;;384.60;2329.60;;;;;;5051414;28;20017;-72
2024/03/28 00:48:25;;;;;;;23.98;10.70;;;384.60;2329.60;;;;;;5051298;28;20028;-73
2024/03/28 00:50:56;;;;;;;33.50;18.77;;;384.60;2329.60;;;;;;5050231;28;20079;-73
2024/03/28 00:53:22;;;;;;;22.10;7.43;;;384.60;2329.60;;;;;;5051911;28;20048;-73
2024/03/28 00:55:48;;;;;;;18.15;6.63;;;384.60;2329.60;;;;;;5051322;28;20025;-73
2024/03/28 00:58:15;;;;;;;18.00;6.35;;;384.60;2329.60;;;;;;5051313;28;20029;-72
2024/03/28 01:00:42;;;;;;;23.40;6.75;;;384.60;2329.60;;;;;;5050772;28;20056;-73
2024/03/28 01:03:09;;;;;;;24.75;8.55;;;384.60;2329.60;;;;;;5050093;28;20036;-73
2024/03/28 01:05:35;;;;;;;57.95;26.95;;;384.50;2329.60;;;;;;5051220;28;20417;-73
2024/03/28 01:08:01;;;;;;;39.55;16.67;;;384.50;2329.60;;;;;;5050969;28;20063;-72
2024/03/28 01:10:27;;;;;;;42.83;19.15;;;384.60;2329.60;;;;;;5050957;28;20021;-73
2024/03/28 01:12:53;;;;;;;27.33;12.00;;;384.60;2329.60;;;;;;5051118;28;20356;-73
2024/03/28 01:15:19;;;;;;;65.40;31.30;;;384.60;2329.60;;;;;;5050948;28;20071;-72
2024/03/28 01:17:45;;;;;;;26.80;11.93;;;384.50;2329.60;;;;;;5050750;28;20143;-72
2024/03/28 01:20:11;;;;;;;33.38;12.55;;;384.40;2329.60;;;;;;5051344;28;20442;-72
2024/03/28 01:22:40;;;;;;;27.35;12.63;;;384.40;2329.60;;;;;;5050447;28;20379;-72
2024/03/28 01:25:07;;;;;;;21.48;8.90;;;384.40;2329.60;;;;;;5050949;28;20021;-73
2024/03/28 01:27:34;;;;;;;36.92;14.55;;;384.40;2329.60;;;;;;5050650;28;20048;-73
2024/03/28 01:30:00;;;;;;;19.55;10.77;;;384.40;2329.60;;;;;;5051008;28;20082;-72
2024/03/28 01:32:26;;;;;;;18.95;8.05;;;384.20;2329.60;;;;;;5037165;28;20483;-73
2024/03/28 01:34:52;;;;;;;13.07;5.32;;;384.40;2329.60;;;;;;5050837;28;20028;-73
2024/03/28 01:37:19;;;;;;;35.95;14.85;;;384.30;2329.60;;;;;;5065799;28;20028;-73
2024/03/28 01:39:47;;;;;;;28.98;10.20;;;384.20;2329.60;;;;;;5049798;28;20061;-73
2024/03/28 01:42:13;;;;;;;28.80;12.15;;;384.10;2329.60;;;;;;5037361;28;20041;-73
2024/03/28 01:44:39;;;;;;;28.83;14.07;;;384.10;2329.60;;;;;;5050216;28;20025;-73
2024/03/28 01:47:06;;;;;;;24.48;11.45;;;359.30;2329.60;;;;;;5037282;28;20383;-74
2024/03/28 01:49:36;;;;;;;44.90;21.13;;;359.20;2329.60;;;;;;5050174;28;20379;-73
2024/03/28 01:52:03;;;;;;;26.77;10.70;;;359.20;2329.60;;;;;;5050532;28;20691;-73
2024/03/28 01:54:34;;;;;;;27.83;10.10;;;359.10;2329.60;;;;;;5050204;28;20471;-74
2024/03/28 01:57:02;;;;;;;39.17;21.67;;;358.90;2329.60;;;;;;5050674;28;20074;-73
2024/03/28 01:59:29;;;;;;;28.35;13.93;;;358.90;2329.60;;;;;;5049789;28;20546;-72
2024/03/28 02:01:56;;;;;;;33.63;16.52;;;358.90;2329.60;;;;;;5049723;28;20037;-72
2024/03/28 02:04:23;;;;;;;33.35;17.90;;;358.90;2329.60;;;;;;5049933;28;20032;-73
2024/03/28 02:06:50;;;;;;;29.77;15.30;;;358.90;2329.60;;;;;;5049973;28;20094;-73
2024/03/28 02:09:16;;;;;;;22.83;10.80;;;358.80;2329.60;;;;;;5049346;28;20062;-73
2024/03/28 02:11:42;;;;;;;42.47;17.50;;;358.80;2329.60;;;;;;5050204;28;20029;-73
2024/03/28 02:14:08;;;;;;;16.08;6.80;;;358.80;2329.60;;;;;;5049376;28;20360;-73
2024/03/28 02:16:35;;;;;;;17.48;7.70;;;358.80;2329.60;;;;;;5049729;28;20025;-73
2024/03/28 02:19:00;;;;;;;20.67;8.38;;;358.80;2329.60;;;;;;5049694;28;20029;-73
2024/03/28 02:21:26;;;;;;;14.50;7.57;;;358.80;2329.60;;;;;;5049508;28;20032;-73
2024/03/28 02:23:54;;;;;;;21.38;9.18;;;358.90;2329.60;;;;;;5049451;28;20032;-72
2024/03/28 02:26:22;;;;;;;30.13;11.07;;;358.90;2329.60;;;;;;5049713;28;20632;-72
2024/03/28 02:28:48;;;;;;;24.63;12.18;;;359.00;2329.60;;;;;;5049487;28;20029;-73
2024/03/28 02:31:14;;;;;;;13.25;6.22;;;359.00;2329.60;;;;;;5049509;28;20371;-72
2024/03/28 02:33:41;;;;;;;14.82;5.13;;;358.90;2329.60;;;;;;5049317;28;20029;-73
2024/03/28 02:36:07;;;;;;;21.65;8.77;;;358.90;2329.60;;;;;;5049722;28;20125;-73
2024/03/28 02:38:32;;;;;;;15.60;5.45;;;358.90;2329.60;;;;;;5049143;28;20103;-73
2024/03/28 02:40:58;;;;;;;20.08;6.93;;;358.90;2329.60;;;;;;5049214;28;20094;-73
2024/03/28 02:43:26;;;;;;;19.83;9.88;;;359.00;2329.60;;;;;;5049036;28;20048;-73
2024/03/28 02:45:52;;;;;;;15.10;7.53;;;359.00;2329.60;;;;;;5049313;28;20433;-73
2024/03/28 02:48:19;;;;;;;11.13;4.88;;;359.00;2329.60;;;;;;5043058;28;20426;-73
2024/03/28 02:50:45;;;;;;;17.27;4.20;;;359.00;2329.60;;;;;;5042986;28;20422;-73
2024/03/28 02:53:11;;;;;;;17.20;5.38;;;359.00;2329.60;;;;;;5049334;28;20045;-74
2024/03/28 02:55:37;;;;;;;21.48;6.80;;;358.60;2329.60;;;;;;5049077;28;20021;-72
2024/03/28 02:58:03;;;;;;;13.50;4.65;;;358.60;2329.60;;;;;;5049177;28;20090;-74
2024/03/28 03:00:29;;;;;;;16.25;6.65;;;358.50;2329.60;;;;;;5049380;28;20104;-73
2024/03/28 03:02:55;;;;;;;17.30;8.63;;;358.50;2329.60;;;;;;5048413;28;20094;-74
2024/03/28 03:05:20;;;;;;;11.77;5.32;;;358.40;2329.60;;;;;;5049359;28;20023;-73
2024/03/28 03:07:49;;;;;;;10.82;3.92;;;358.50;2329.60;;;;;;5048746;28;20410;-74
2024/03/28 03:10:15;;;;;;;15.90;5.95;;;358.50;2329.60;;;;;;5048871;28;20706;-72
2024/03/28 03:12:42;;;;;;;15.18;6.30;;;358.40;2329.60;;;;;;5048771;28;20040;-73
2024/03/28 03:15:09;;;;;;;10.80;5.55;;;358.50;2329.60;;;;;;5049081;28;20024;-73
2024/03/28 03:17:36;;;;;;;10.90;4.10;;;358.70;2329.60;;;;;;5048835;28;20018;-73
2024/03/28 03:20:07;;;;;;;11.23;3.35;;;358.60;2329.60;;;;;;5049123;28;20022;-73
2024/03/28 03:22:35;;;;;;;14.88;4.93;;;358.60;2329.60;;;;;;5048850;28;20523;-73
2024/03/28 03:25:10;;;;;;;14.30;3.33;;;358.70;2329.60;;;;;;5049000;28;20103;-73
2024/03/28 03:34:34;;;;;;;17.42;3.75;;;358.80;2329.60;;;;;;5052308;28;20033;-73
2024/03/28 03:35:51;;;;;;;13.05;3.00;;;358.80;2329.60;;;;;;5053420;28;20070;-74
2024/03/28 03:38:17;;;;;;;12.88;3.95;;;358.70;2329.60;;;;;;5053006;28;20029;-73
2024/03/28 03:40:42;;;;;;;12.77;4.00;;;358.50;2329.60;;;;;;5052517;28;20492;-72
2024/03/28 03:43:08;;;;;;;9.70;4.50;;;358.40;2329.60;;;;;;5052352;28;20051;-71
2024/03/28 03:45:34;;;;;;;9.82;4.05;;;358.40;2329.60;;;;;;5052663;28;20052;-74
2024/03/28 03:48:00;;;;;;;7.22;3.00;;;358.40;2329.60;;;;;;5052623;28;20467;-73
2024/03/28 03:50:26;;;;;;;15.50;3.35;;;358.40;2329.60;;;;;;5052660;28;20017;-73
2024/03/28 03:52:51;;;;;;;12.00;4.45;;;358.40;2329.60;;;;;;5052412;28;20388;-72
2024/03/28 03:55:17;;;;;;;19.95;5.13;;;358.40;2329.60;;;;;;5052477;28;20021;-73
2024/03/28 03:57:43;;;;;;;17.80;3.78;;;358.50;2329.60;;;;;;5052356;28;20021;-73
2024/03/28 04:00:10;;;;;;;20.40;3.83;;;358.50;2329.60;;;;;;5052230;28;20021;-73
2024/03/28 04:02:35;;;;;;;9.80;3.40;;;358.60;2329.60;;;;;;5051914;28;20043;-73
2024/03/28 04:05:02;;;;;;;11.98;3.75;;;358.80;2329.60;;;;;;5052526;28;20100;-72
2024/03/28 04:07:28;;;;;;;15.95;3.78;;;358.80;2329.60;;;;;;5050808;28;20528;-73
2024/03/28 04:09:53;;;;;;;13.68;3.65;;;358.80;2329.60;;;;;;5052086;28;20025;-74
2024/03/28 04:12:19;;;;;;;13.65;4.45;;;358.80;2329.60;;;;;;5052206;28;20037;-74
2024/03/28 04:14:45;;;;;;;14.73;4.00;;;358.80;2329.60;;;;;;5051776;28;20118;-71
2024/03/28 04:17:11;;;;;;;9.77;3.72;;;358.80;2329.60;;;;;;5052291;28;20037;-74
2024/03/28 04:19:37;;;;;;;7.65;3.50;;;358.80;2329.60;;;;;;5052000;28;20104;-75
2024/03/28 04:22:03;;;;;;;9.77;2.97;;;358.80;2329.60;;;;;;5051798;28;20754;-72
2024/03/28 04:24:29;;;;;;;10.70;2.67;;;358.80;2329.60;;;;;;5051859;28;20046;-71
2024/03/28 04:26:55;;;;;;;8.82;3.20;;;358.80;2329.60;;;;;;5051684;28;20025;-71
2024/03/28 04:29:21;;;;;;;11.05;3.30;;;358.80;2329.60;;;;;;5051939;28;20467;-71
2024/03/28 04:31:46;;;;;;;8.93;3.30;;;358.80;2329.60;;;;;;5051342;28;20025;-72
2024/03/28 04:34:12;;;;;;;10.70;2.95;;;358.80;2329.60;;;;;;5052107;28;20033;-72
2024/03/28 04:36:38;;;;;;;10.60;4.43;;;358.70;2329.60;;;;;;5051230;28;20399;-72
2024/03/28 04:39:04;;;;;;;15.15;4.00;;;358.70;2329.60;;;;;;5050289;28;20045;-71
2024/03/28 04:41:30;;;;;;;8.07;3.33;;;358.80;2329.60;;;;;;5051639;28;20048;-71
2024/03/28 04:43:57;;;;;;;6.72;3.08;;;358.80;2329.60;;;;;;5051273;28;20028;-71
2024/03/28 04:46:23;;;;;;;7.45;2.72;;;358.60;2329.60;;;;;;5051341;28;20078;-72
2024/03/28 04:48:48;;;;;;;8.50;3.28;;;358.80;2329.60;;;;;;5051521;28;20033;-71
2024/03/28 04:51:15;;;;;;;5.72;2.38;;;358.80;2329.60;;;;;;5051798;28;20029;-72
2024/03/28 04:53:40;;;;;;;6.05;2.10;;;358.80;2329.60;;;;;;5051594;28;20464;-72
2024/03/28 04:56:06;;;;;;;6.65;2.10;;;358.90;2329.60;;;;;;5051038;28;20040;-69
2024/03/28 04:58:32;;;;;;;4.20;1.70;;;359.00;2329.60;;;;;;5051643;28;20477;-72
2024/03/28 05:00:58;;;;;;;5.30;1.73;;;359.20;2329.60;;;;;;5050905;28;20040;-72
2024/03/28 05:03:24;;;;;;;5.55;1.60;;;359.30;2329.60;;;;;;5051380;28;20468;-72
2024/03/28 05:05:51;;;;;;;4.80;1.70;;;359.30;2329.60;;;;;;5051333;28;20074;-71
2024/03/28 05:08:17;;;;;;;3.58;1.60;;;384.10;2329.60;;;;;;5051208;28;20059;-71
2024/03/28 05:10:43;;;;;;;4.22;1.52;;;384.30;2329.60;;;;;;5050918;28;20060;-71
2024/03/28 05:13:09;;;;;;;5.95;1.80;;;384.30;2304.00;;;;;;5051080;28;20040;-71
2024/03/28 05:15:35;;;;;;;6.07;1.70;;;384.30;2304.00;;;;;;5051028;28;20029;-72
2024/03/28 05:18:01;;;;;;;12.52;2.70;;;384.30;2304.00;;;;;;5051380;28;20106;-70
2024/03/28 05:20:26;;;;;;;2.70;1.65;;;384.30;2304.00;;;;;;5050750;28;20048;-71
2024/03/28 05:22:52;;;;;;;7.00;1.88;;;384.30;2278.40;;;;;;5051055;28;20041;-71
2024/03/28 05:25:19;;;;;;;4.97;2.40;;;384.30;2278.40;;;;;;5050557;28;20052;-71
2024/03/28 05:27:45;;;;;;;8.10;4.95;;;384.30;2278.40;;;;;;5050867;28;20025;-72
2024/03/28 05:30:11;;;;;;;4.78;2.90;;;384.10;2304.00;;;;;;5050585;28;20379;-70
2024/03/28 05:32:37;;;;;;;8.80;3.83;;;384.10;2304.00;;;;;;5050465;28;20017;-71
2024/03/28 05:35:03;;;;;;;5.28;3.00;;;384.10;2329.60;;;;;;5050795;28;20551;-73
2024/03/28 05:37:29;;;;;;;5.40;3.05;;;384.00;2278.40;;;;;;5050917;28;20092;-75
2024/03/28 05:39:55;;;;;;;4.05;1.92;;;384.10;2304.00;;;;;;5049959;28;20140;-73
2024/03/28 05:42:21;;;;;;;4.65;1.75;;;409.70;2278.40;;;;;;5050547;28;20401;-72
2024/03/28 05:44:46;;;;;;;3.38;1.40;;;410.10;2150.40;;;;;;5050343;28;20092;-71
2024/03/28 05:47:12;;;;;;;6.30;2.08;;;410.30;2124.80;;;;;;5050271;28;20021;-71
2024/03/28 05:49:38;;;;;;;3.90;2.13;;;410.30;2124.80;;;;;;5049769;28;20096;-71
2024/03/28 05:52:04;;;;;;;3.30;1.67;;;410.30;2099.20;;;;;;5050395;28;20041;-73
2024/03/28 05:54:30;;;;;;;4.72;2.05;;;435.20;2099.20;;;;;;5049988;28;20094;-73
2024/03/28 05:56:56;;;;;;;3.60;1.70;;;460.80;2048.00;;;;;;5050172;28;20024;-74
2024/03/28 05:59:23;;;;;;;2.38;1.30;;;461.20;1971.20;;;;;;5049904;28;20417;-75
2024/03/28 06:01:49;;;;;;;2.92;1.63;;;461.10;1945.60;;;;;;5050258;28;20479;-74
2024/03/28 06:04:15;;;;;;;3.95;1.92;;;461.30;1971.20;;;;;;5049742;28;20051;-74
2024/03/28 06:06:40;;;;;;;5.97;3.03;;;461.50;1920.00;;;;;;5050088;28;20025;-73
2024/03/28 06:09:06;;;;;;;3.70;2.38;;;461.50;1920.00;;;;;;5049558;28;20032;-71
2024/03/28 06:11:32;;;;;;;5.35;4.85;;;486.90;1868.80;;;;;;5050254;28;20028;-71
2024/03/28 06:14:08;;;;;;;5.50;5.03;;;563.40;1740.80;;;;;;5049606;28;20025;-71
2024/03/28 06:16:34;;;;;;;4.97;2.47;;;640.00;1484.80;;;;;;5049876;28;20479;-71
2024/03/28 06:19:02;;;;;;;3.63;2.38;;;691.80;1382.40;;;;;;5050008;28;20024;-72
2024/03/28 06:21:28;;;;;;;3.47;2.33;;;742.60;1305.60;;;;;;5049719;28;20023;-75
2024/03/28 06:23:53;;;;;;;3.30;2.13;;;768.10;1203.20;;;;;;5049535;28;20033;-75
2024/03/28 06:26:19;;;;;;;4.95;2.97;;;793.60;1203.20;;;;;;5050029;28;20442;-75
2024/03/28 06:28:45;;;;;;;10.55;8.68;;;794.50;1126.40;;;;;;5049497;28;20036;-74
2024/03/28 06:31:11;;;;;;;3.78;3.10;;;819.50;1100.80;;;;;;5049738;28;20021;-75
2024/03/28 06:33:37;;;;;;;9.60;8.55;;;819.90;1075.20;;;;;;5049198;28;20025;-74
2024/03/28 06:36:04;;;;;;;12.85;10.88;;;844.90;1075.20;;;;;;5049724;28;20032;-74
2024/03/28 06:38:31;;;;;;;16.83;15.07;;;845.20;1075.20;;;;;;5049491;28;20028;-75
2024/03/28 06:41:00;;;;;;;7.60;4.63;;;845.70;1049.60;;;;;;5049531;28;20052;-75
2024/03/28 06:43:26;;;;;;;3.38;2.58;;;870.50;1049.60;;;;;;5064534;28;20080;-74
2024/03/28 06:45:52;;;;;;;6.70;5.18;;;870.90;998.40;;;;;;5049419;28;20039;-75
2024/03/28 06:48:18;;;;;;;3.42;3.13;;;870.90;972.80;;;;;;5049166;28;20784;-75
2024/03/28 06:50:44;;;;;;;2.28;2.08;;;871.30;947.20;;;;;;5049746;28;20033;-75
2024/03/28 06:53:10;;;;;;;5.90;5.30;;;896.20;921.60;;;;;;5049853;28;20484;-75
2024/03/28 06:55:37;;;;;;;4.20;3.80;;;896.60;921.60;;;;;;5049287;28;20059;-75
2024/03/28 06:58:03;;;;;;;3.00;2.47;;;921.90;921.60;;;;;;5049280;28;20017;-75
2024/03/28 07:00:30;;;;;;;9.23;6.72;;;922.40;947.20;;;;;;5063768;28;20045;-76
2024/03/28 07:02:57;;;;;;;5.28;3.05;;;947.40;896.00;;;;;;5048799;28;20035;-76
2024/03/28 07:05:23;;;;;;;6.57;5.90;;;948.10;896.00;;;;;;5049368;28;20079;-76
2024/03/28 07:07:49;;;;;;;13.10;11.07;;;972.80;896.00;;;;;;5049203;28;20056;-75
2024/03/28 07:10:15;;;;;;;9.95;6.72;;;973.20;896.00;;;;;;5039259;28;20377;-75
2024/03/28 07:12:41;;;;;;;7.18;6.35;;;973.00;870.40;;;;;;5046496;28;20033;-76
2024/03/28 07:15:09;;;;;;;5.97;5.00;;;973.70;870.40;;;;;;5034811;28;20021;-78
2024/03/28 07:17:36;;;;;;;2.60;2.40;;;973.40;870.40;;;;;;5041852;28;20060;-76
2024/03/28 07:20:03;;;;;;;4.93;4.43;;;948.10;870.40;;;;;;5046519;28;20129;-76
2024/03/28 07:22:29;;;;;;;6.07;3.35;;;948.10;870.40;;;;;;5041127;28;20048;-77
2024/03/28 07:24:55;;;;;;;4.53;3.00;;;947.40;896.00;;;;;;5038875;28;20494;-79
2024/03/28 07:27:22;;;;;;;2.75;2.40;;;947.60;896.00;;;;;;5035805;28;20025;-76
2024/03/28 07:29:48;;;;;;;3.03;2.72;;;947.30;870.40;;;;;;5048804;28;20060;-76
2024/03/28 07:32:14;;;;;;;8.35;6.85;;;972.90;896.00;;;;;;5048951;28;20491;-80
2024/03/28 07:34:40;;;;;;;11.43;6.72;;;973.10;870.40;;;;;;5048570;28;20104;-79
2024/03/28 07:37:06;;;;;;;6.50;3.28;;;922.50;896.00;;;;;;5048671;28;20017;-76
2024/03/28 07:39:33;;;;;;;4.80;4.00;;;870.70;921.60;;;;;;5048661;28;20437;-81
2024/03/28 07:41:59;;;;;;;47.10;26.38;;;845.20;972.80;;;;;;5047250;28;20403;-76
2024/03/28 07:44:25;;;;;;;18.42;16.35;;;922.00;921.60;;;;;;5048947;28;20399;-76
2024/03/28 07:46:51;;;;;;;5.18;4.43;;;972.80;896.00;;;;;;5048600;28;20025;-77
2024/03/28 07:49:17;;;;;;;8.48;5.50;;;998.40;896.00;;;;;;5048461;28;20033;-78
2024/03/28 07:51:43;;;;;;;5.97;4.53;;;998.70;870.40;;;;;;5037284;28;20031;-76
2024/03/28 07:54:09;;;;;;;3.10;2.80;;;998.80;870.40;;;;;;5048633;28;20025;-76
2024/03/28 07:56:35;;;;;;;4.85;2.97;;;973.70;870.40;;;;;;5048657;28;20025;-77
2024/03/28 07:59:01;;;;;;;11.57;8.55;;;998.40;896.00;;;;;;5046950;28;20418;-78
2024/03/28 08:01:27;;;;;;;11.27;8.13;;;973.40;870.40;;;;;;5034965;28;20095;-78
2024/03/28 08:03:53;;;;;;;4.22;3.35;;;1024.00;844.80;;;;;;5048023;28;20087;-76
2024/03/28 08:06:19;;;;;;;7.28;6.65;;;1024.50;844.80;;;;;;5048650;28;20052;-78
2024/03/28 08:08:45;;;;;;;8.00;7.18;;;1024.70;819.20;;;;;;5048252;28;20033;-76
2024/03/28 08:11:11;;;;;;;3.63;3.03;;;1024.90;819.20;;;;;;5048979;28;20096;-79
2024/03/28 08:13:36;;;;;;;4.43;4.03;;;999.30;844.80;;;;;;5052374;28;20052;-76
2024/03/28 08:16:03;;;;;;;5.53;3.65;;;998.80;844.80;;;;;;5052068;28;20029;-78
2024/03/28 08:18:28;;;;;;;19.88;8.70;;;998.40;844.80;;;;;;5051855;28;20021;-76
2024/03/28 08:20:57;;;;;;;73.15;32.47;;;999.00;819.20;;;;;;5052099;28;20098;-76
2024/03/28 08:23:23;;;;;;;6.63;4.00;;;1024.20;819.20;;;;;;5052190;28;20037;-77
2024/03/28 08:25:49;;;;;;;8.55;5.28;;;999.20;819.20;;;;;;5051606;28;20021;-78
2024/03/28 08:28:15;;;;;;;51.85;20.63;;;999.20;819.20;;;;;;5052105;28;20105;-76
2024/03/28 08:30:42;;;;;;;9.60;5.55;;;999.30;819.20;;;;;;5051111;28;20025;-77
2024/03/28 08:33:08;;;;;;;5.53;4.40;;;1024.00;819.20;;;;;;5047905;28;20029;-75
2024/03/28 08:35:43;;;;;;;10.85;6.93;;;1024.00;819.20;;;;;;5038349;28;20009;-76
2024/03/28 08:38:09;;;;;;;70.90;57.28;;;1024.50;844.80;;;;;;5051044;28;20475;-76
2024/03/28 08:40:39;;;;;;;5.50;4.05;;;1024.10;793.60;;;;;;5039778;28;20044;-75
2024/03/28 08:43:05;;;;;;;22.70;19.23;;;973.20;844.80;;;;;;5051491;28;20044;-76
2024/03/28 08:45:33;;;;;;;4.65;2.95;;;948.10;819.20;;;;;;5050244;28;20025;-75
2024/03/28 08:48:03;;;;;;;3.25;2.78;;;972.90;844.80;;;;;;5050993;28;20025;-78
2024/03/28 08:50:29;;;;;;;9.52;6.05;;;973.00;844.80;;;;;;5051357;28;20025;-77
2024/03/28 08:52:55;;;;;;;7.03;4.55;;;922.20;870.40;;;;;;5038373;28;20033;-76
2024/03/28 08:55:23;;;;;;;8.50;7.50;;;870.60;896.00;;;;;;5040533;28;20021;-77
2024/03/28 08:57:51;;;;;;;5.82;2.88;;;794.40;947.20;;;;;;5043748;28;20024;-78
2024/03/28 09:00:19;;;;;;;5.22;3.45;;;768.10;998.40;;;;;;5038093;28;20487;-76
2024/03/28 09:02:45;;;;;;;5.18;2.92;;;717.60;1024.00;;;;;;5039336;28;20431;-75
2024/03/28 09:05:11;;;;;;;4.15;2.50;;;691.60;1049.60;;;;;;5039474;28;20022;-75
2024/03/28 09:07:38;;;;;;;3.53;2.08;;;665.80;1126.40;;;;;;5039050;28;20033;-76
2024/03/28 09:10:07;;;;;;;4.40;1.65;;;640.40;1126.40;;;;;;5043004;28;20486;-76
2024/03/28 09:12:37;;;;;;;2.72;1.40;;;615.10;1177.60;;;;;;5040143;28;20041;-75
2024/03/28 09:15:04;;;;;;;8.27;6.22;;;589.70;1228.80;;;;;;5039785;28;20047;-75
2024/03/28 09:17:30;;;;;;;4.88;3.67;;;589.30;1254.40;;;;;;5042330;28;20017;-75
2024/03/28 09:19:58;;;;;;;4.63;2.03;;;589.30;1228.80;;;;;;5040491;28;20028;-77
2024/03/28 09:22:24;;;;;;;5.75;2.83;;;589.20;1228.80;;;;;;5036894;28;20033;-76
2024/03/28 09:24:50;;;;;;;10.88;5.28;;;589.10;1254.40;;;;;;5041182;28;20455;-76
2024/03/28 09:27:16;;;;;;;4.00;2.35;;;589.00;1228.80;;;;;;5034916;28;20025;-75
2024/03/28 09:29:44;;;;;;;2.45;1.45;;;588.90;1254.40;;;;;;5042075;28;20070;-75
2024/03/28 09:32:10;;;;;;;4.18;2.08;;;563.90;1305.60;;;;;;5031152;28;20028;-75
2024/03/28 09:34:39;;;;;;;4.70;1.70;;;588.90;1254.40;;;;;;5038372;28;20033;-78
2024/03/28 09:37:07;;;;;;;4.97;3.05;;;563.70;1280.00;;;;;;5037655;28;20024;-75
2024/03/28 09:39:33;;;;;;;2.80;1.73;;;563.50;1280.00;;;;;;5041073;28;20041;-77
2024/03/28 09:42:06;;;;;;;8.02;3.90;;;563.20;1305.60;;;;;;5041493;28;20227;-73
2024/03/28 09:44:35;;;;;;;1.83;1.10;;;563.20;1305.60;;;;;;5039201;28;20025;-75
2024/03/28 09:47:02;;;;;;;2.35;1.15;;;563.20;1305.60;;;;;;5035018;28;20028;-74
2024/03/28 09:49:29;;;;;;;6.07;3.00;;;538.50;1280.00;;;;;;5041670;28;20013;-75
2024/03/28 09:51:57;;;;;;;12.38;7.65;;;563.30;1331.20;;;;;;5043495;28;20097;-76
2024/03/28 09:54:23;;;;;;;2.53;1.60;;;563.50;1331.20;;;;;;5034628;28;20016;-77
2024/03/28 09:56:51;;;;;;;3.42;1.45;;;563.60;1356.80;;;;;;5035522;28;20104;-74
2024/03/28 09:59:17;;;;;;;2.58;1.77;;;563.60;1331.20;;;;;;5039415;28;20013;-75
2024/03/28 10:01:46;;;;;;;2.38;1.10;;;563.60;1356.80;;;;;;5033180;28;20026;-75
2024/03/28 10:04:20;;;;;;;3.58;2.47;;;563.40;1356.80;;;;;;5033865;28;20104;-75
2024/03/28 10:06:47;;;;;;;3.55;1.42;;;563.50;1331.20;;;;;;5030817;28;20036;-76
2024/03/28 10:09:20;;;;;;;3.70;2.35;;;563.30;1331.20;;;;;;5042965;28;20029;-74
2024/03/28 10:11:45;;;;;;;2.60;1.20;;;563.20;1331.20;;;;;;5042911;28;20044;-74
2024/03/28 10:14:18;;;;;;;3.03;1.42;;;538.50;1305.60;;;;;;5042733;28;20033;-75
2024/03/28 10:16:49;;;;;;;4.18;2.45;;;563.30;1382.40;;;;;;5036527;28;20053;-75
2024/03/28 10:19:18;;;;;;;4.85;1.60;;;538.50;1331.20;;;;;;5037497;28;20040;-76
2024/03/28 10:21:45;;;;;;;7.07;4.07;;;563.20;1356.80;;;;;;5040624;28;20581;-79
2024/03/28 10:24:18;;;;;;;1.95;1.40;;;563.50;1356.80;;;;;;5038922;28;20025;-71
2024/03/28 10:26:44;;;;;;;2.70;1.23;;;563.60;1382.40;;;;;;5035817;28;20061;-73
2024/03/28 10:29:14;;;;;;;4.05;2.05;;;563.60;1382.40;;;;;;5039995;28;20468;-73
2024/03/28 10:31:40;;;;;;;7.38;3.83;;;563.60;1356.80;;;;;;5038017;28;20379;-73
2024/03/28 10:34:16;;;;;;;2.92;1.38;;;563.60;1331.20;;;;;;5049580;28;20041;-74
2024/03/28 10:36:42;;;;;;;4.65;3.20;;;563.50;1356.80;;;;;;5048609;28;20017;-73
2024/03/28 10:39:11;;;;;;;8.85;5.07;;;563.20;1382.40;;;;;;5049202;28;20067;-75
2024/03/28 10:41:39;;;;;;;4.82;2.20;;;563.40;1356.80;;;;;;5049452;28;20111;-73
2024/03/28 10:44:08;;;;;;;2.28;1.30;;;563.50;1382.40;;;;;;5049654;28;20027;-75
2024/03/28 10:46:34;;;;;;;4.80;3.10;;;563.30;1331.20;;;;;;5049397;28;20044;-73
2024/03/28 10:49:06;;;;;;;1.25;1.00;;;563.20;1356.80;;;;;;5049181;28;20479;-73
2024/03/28 10:51:36;;;;;;;5.93;3.40;;;563.20;1331.20;;;;;;5049079;28;20013;-73
2024/03/28 10:54:16;;;;;;;2.53;1.40;;;563.50;1356.80;;;;;;5049434;28;20324;-72
2024/03/28 10:56:44;;;;;;;2.03;1.15;;;563.40;1331.20;;;;;;5049612;28;20363;-73
2024/03/28 10:59:13;;;;;;;3.20;1.38;;;563.20;1331.20;;;;;;5049360;28;20018;-72
2024/03/28 11:01:39;;;;;;;1.92;1.17;;;563.20;1331.20;;;;;;5048976;28;20112;-73
2024/03/28 11:04:06;;;;;;;1.52;1.00;;;563.30;1356.80;;;;;;5049192;28;20444;-73
2024/03/28 11:06:34;;;;;;;2.85;1.70;;;563.20;1331.20;;;;;;5035947;28;20101;-73
2024/03/28 11:09:04;;;;;;;2.67;1.70;;;563.20;1331.20;;;;;;5048883;28;20028;-74
2024/03/28 11:11:31;;;;;;;3.83;1.80;;;563.30;1356.80;;;;;;5049658;28;20376;-73
2024/03/28 11:14:00;;;;;;;6.85;3.17;;;563.40;1331.20;;;;;;5047856;28;20897;-73
2024/03/28 11:16:25;;;;;;;2.47;1.27;;;563.50;1331.20;;;;;;5048661;28;20104;-71
2024/03/28 11:18:58;;;;;;;3.30;1.10;;;563.60;1305.60;;;;;;5048434;28;20108;-72
2024/03/28 11:21:28;;;;;;;1.67;1.00;;;563.60;1305.60;;;;;;5048485;28;20025;-73
2024/03/28 11:23:54;;;;;;;6.07;2.70;;;563.70;1331.20;;;;;;5048208;28;20426;-73
2024/03/28 11:26:25;;;;;;;3.05;1.58;;;563.80;1331.20;;;;;;5047454;28;20021;-73
2024/03/28 11:29:05;;;;;;;1.77;1.15;;;563.70;1331.20;;;;;;5048695;28;20021;-73
2024/03/28 11:31:32;;;;;;;2.97;1.52;;;563.60;1305.60;;;;;;5048308;28;20061;-73
2024/03/28 11:34:02;;;;;;;4.00;1.63;;;563.60;1305.60;;;;;;5048306;28;20059;-72
2024/03/28 11:36:29;;;;;;;2.33;1.30;;;563.70;1382.40;;;;;;5048521;28;20057;-71
2024/03/28 11:38:56;;;;;;;3.63;1.40;;;563.80;1331.20;;;;;;5047971;28;20033;-72
2024/03/28 11:41:22;;;;;;;6.28;3.22;;;563.80;1305.60;;;;;;5048655;28;20021;-72
2024/03/28 11:43:49;;;;;;;3.40;1.75;;;564.10;1331.20;;;;;;5046735;28;20421;-72
2024/03/28 11:46:15;;;;;;;8.32;5.57;;;564.10;1331.20;;;;;;5048410;28;20056;-73
2024/03/28 11:48:41;;;;;;;7.93;4.30;;;564.10;1305.60;;;;;;5052107;28;20021;-72
2024/03/28 11:51:08;;;;;;;2.92;1.85;;;564.10;1280.00;;;;;;5041997;28;20112;-73
2024/03/28 11:53:40;;;;;;;10.07;3.25;;;564.10;1280.00;;;;;;5051866;28;20037;-72
2024/03/28 11:56:07;;;;;;;3.38;2.40;;;588.80;1280.00;;;;;;5051937;28;20025;-73
2024/03/28 11:58:33;;;;;;;8.48;3.92;;;589.00;1280.00;;;;;;5051950;28;20025;-72
2024/03/28 12:01:03;;;;;;;9.90;6.93;;;589.00;1280.00;;;;;;5043168;28;20390;-72
2024/03/28 12:03:30;;;;;;;6.20;4.28;;;589.10;1254.40;;;;;;5039157;28;20036;-73
2024/03/28 12:05:57;;;;;;;5.90;3.92;;;589.40;1254.40;;;;;;5052047;28;20075;-72
2024/03/28 12:08:28;;;;;;;4.38;2.50;;;589.40;1254.40;;;;;;5051837;28;20021;-72
2024/03/28 12:11:05;;;;;;;6.45;3.58;;;589.50;1254.40;;;;;;5051750;28;20021;-73
2024/03/28 12:13:32;;;;;;;20.17;14.55;;;589.60;1228.80;;;;;;5051687;28;20040;-72
2024/03/28 12:16:02;;;;;;;19.35;11.70;;;589.60;1228.80;;;;;;5051796;28;20025;-72
2024/03/28 12:18:30;;;;;;;22.92;15.45;;;589.70;1228.80;;;;;;5051764;28;20025;-73